NY345 KGPT-KASD
Flight info
| Callsign | NY345 |
|---|---|
| Flight time | N/A |
| Altitude | 1500 |
| Route | D |
| Aircraft | C172/L-V/N |
Departure
| Time | 2026-04-24 18:55 |
|---|---|
| Airport | Gulfport Biloxi International Airport (KGPT) |
Arrival
| Time | N/A |
|---|---|
| Airport | Slidell Airport (KASD) |
| Time | Latitude | Longitude | Altitude | Speed | Heading |
|---|---|---|---|---|---|
| 2026-04-24 18:54 | 30.38043 | -89.40370 | 1545 ft | 134 kts | 266° |
| 2026-04-24 18:55 | 30.37898 | -89.42513 | 1452 ft | 128 kts | 257° |
| 2026-04-24 18:55 | 30.37724 | -89.43506 | 1399 ft | 129 kts | 253° |
| 2026-04-24 18:55 | 30.37545 | -89.44567 | 1292 ft | 134 kts | 252° |
| 2026-04-24 18:56 | 30.37437 | -89.45600 | 1405 ft | 127 kts | 261° |
| 2026-04-24 18:56 | 30.37360 | -89.46634 | 1316 ft | 133 kts | 258° |
| 2026-04-24 18:56 | 30.37253 | -89.47677 | 1394 ft | 126 kts | 263° |
| 2026-04-24 18:56 | 30.37238 | -89.48724 | 1306 ft | 133 kts | 264° |
| 2026-04-24 18:57 | 30.37248 | -89.49777 | 1248 ft | 127 kts | 266° |
| 2026-04-24 18:57 | 30.37243 | -89.50800 | 1127 ft | 132 kts | 262° |
| 2026-04-24 18:57 | 30.37235 | -89.51508 | 1159 ft | 130 kts | 269° |
| 2026-04-24 18:57 | 30.37356 | -89.52913 | 1084 ft | 131 kts | 263° |
| 2026-04-24 18:58 | 30.37208 | -89.53936 | 965 ft | 130 kts | 270° |
| 2026-04-24 18:58 | 30.37216 | -89.55000 | 817 ft | 133 kts | 258° |
| 2026-04-24 18:58 | 30.37147 | -89.55709 | 788 ft | 131 kts | 253° |
| 2026-04-24 18:58 | 30.36870 | -89.56684 | 836 ft | 125 kts | 238° |
| 2026-04-24 18:59 | 30.36497 | -89.57554 | 846 ft | 129 kts | 240° |
| 2026-04-24 18:59 | 30.36193 | -89.58551 | 954 ft | 117 kts | 239° |
| 2026-04-24 18:59 | 30.35694 | -89.59182 | 854 ft | 119 kts | 202° |
| 2026-04-24 18:59 | 30.34804 | -89.59256 | 734 ft | 118 kts | 182° |
| 2026-04-24 19:00 | 30.34069 | -89.59479 | 775 ft | 113 kts | 242° |
| 2026-04-24 19:00 | 30.33758 | -89.60375 | 481 ft | 137 kts | 236° |
| 2026-04-24 19:00 | 30.33272 | -89.61355 | 373 ft | 134 kts | 233° |
| 2026-04-24 19:00 | 30.32881 | -89.62251 | 646 ft | 125 kts | 240° |
| 2026-04-24 19:01 | 30.32303 | -89.63063 | 316 ft | 135 kts | 214° |
| 2026-04-24 19:01 | 30.31690 | -89.63779 | 551 ft | 123 kts | 231° |
| 2026-04-24 19:01 | 30.31263 | -89.64621 | 587 ft | 120 kts | 236° |
| 2026-04-24 19:01 | 30.30890 | -89.65429 | 799 ft | 116 kts | 249° |
| 2026-04-24 19:02 | 30.30739 | -89.66403 | 718 ft | 124 kts | 253° |
| 2026-04-24 19:02 | 30.30631 | -89.67347 | 715 ft | 126 kts | 263° |
| 2026-04-24 19:02 | 30.30687 | -89.68394 | 703 ft | 133 kts | 272° |
| 2026-04-24 19:02 | 30.30882 | -89.69485 | 678 ft | 138 kts | 277° |
| 2026-04-24 19:03 | 30.31015 | -89.70420 | 1026 ft | 111 kts | 272° |
| 2026-04-24 19:03 | 30.31026 | -89.71381 | 977 ft | 118 kts | 258° |
| 2026-04-24 19:03 | 30.31278 | -89.72327 | 977 ft | 130 kts | 294° |
| 2026-04-24 19:03 | 30.31761 | -89.73204 | 1082 ft | 131 kts | 300° |
| 2026-04-24 19:04 | 30.32289 | -89.74073 | 1106 ft | 130 kts | 301° |
| 2026-04-24 19:04 | 30.32776 | -89.74929 | 1151 ft | 126 kts | 300° |
| 2026-04-24 19:04 | 30.33276 | -89.75793 | 1150 ft | 129 kts | 301° |
| 2026-04-24 19:04 | 30.33769 | -89.76645 | 1254 ft | 128 kts | 298° |
| 2026-04-24 19:05 | 30.34292 | -89.77495 | 1480 ft | 129 kts | 304° |
| 2026-04-24 19:05 | 30.34884 | -89.78256 | 1834 ft | 129 kts | 319° |
| 2026-04-24 19:05 | 30.35606 | -89.78897 | 2025 ft | 131 kts | 318° |
| 2026-04-24 19:05 | 30.36240 | -89.79656 | 2094 ft | 136 kts | 297° |
| 2026-04-24 19:06 | 30.36724 | -89.80583 | 2176 ft | 135 kts | 300° |
| 2026-04-24 19:06 | 30.37206 | -89.81483 | 2340 ft | 117 kts | 268° |
| 2026-04-24 19:06 | 30.36794 | -89.82082 | 2311 ft | 99 kts | 197° |
| 2026-04-24 19:06 | 30.35917 | -89.81920 | 1983 ft | 117 kts | 158° |
| 2026-04-24 19:07 | 30.35600 | -89.81209 | 1885 ft | 114 kts | 79° |
| 2026-04-24 19:07 | 30.36230 | -89.80655 | 1560 ft | 121 kts | 14° |
| 2026-04-24 19:07 | 30.36973 | -89.80826 | 1513 ft | 93 kts | 278° |
| 2026-04-24 19:07 | 30.36808 | -89.81442 | 1102 ft | 110 kts | 235° |
| 2026-04-24 19:08 | 30.36206 | -89.81978 | 620 ft | 109 kts | 191° |
| 2026-04-24 19:08 | 30.35494 | -89.82072 | 221 ft | 98 kts | 183° |
| 2026-04-24 19:08 | 30.34838 | -89.82077 | 37 ft | 85 kts | 179° |